sensor_id;sensor_type;location;lat;lon;timestamp;pressure;altitude;pressure_sealevel;temperature
43802;BMP280;29429;51.074;13.764;2023-07-29T00:02:02;99333.75;;;20.41
43802;BMP280;29429;51.074;13.764;2023-07-29T00:04:30;99337.56;;;20.40
43802;BMP280;29429;51.074;13.764;2023-07-29T00:06:57;99338.66;;;20.39
43802;BMP280;29429;51.074;13.764;2023-07-29T00:09:25;99338.13;;;20.37
43802;BMP280;29429;51.074;13.764;2023-07-29T00:11:52;99338.38;;;20.41
43802;BMP280;29429;51.074;13.764;2023-07-29T00:14:20;99343.00;;;20.40
43802;BMP280;29429;51.074;13.764;2023-07-29T00:16:47;99334.31;;;20.43
43802;BMP280;29429;51.074;13.764;2023-07-29T00:19:15;99335.09;;;20.49
43802;BMP280;29429;51.074;13.764;2023-07-29T00:21:42;99331.00;;;20.51
43802;BMP280;29429;51.074;13.764;2023-07-29T00:24:10;99331.53;;;20.53
43802;BMP280;29429;51.074;13.764;2023-07-29T00:26:37;99322.88;;;20.51
43802;BMP280;29429;51.074;13.764;2023-07-29T00:29:05;99330.69;;;20.58
43802;BMP280;29429;51.074;13.764;2023-07-29T00:31:32;99330.44;;;20.59
43802;BMP280;29429;51.074;13.764;2023-07-29T00:34:00;99331.47;;;20.63
43802;BMP280;29429;51.074;13.764;2023-07-29T00:36:27;99326.84;;;20.69
43802;BMP280;29429;51.074;13.764;2023-07-29T00:38:54;99330.59;;;20.73
43802;BMP280;29429;51.074;13.764;2023-07-29T00:41:24;99321.09;;;20.76
43802;BMP280;29429;51.074;13.764;2023-07-29T00:43:53;99327.63;;;20.75
43802;BMP280;29429;51.074;13.764;2023-07-29T00:46:20;99317.63;;;20.70
43802;BMP280;29429;51.074;13.764;2023-07-29T00:48:49;99323.59;;;20.67
43802;BMP280;29429;51.074;13.764;2023-07-29T00:51:16;99329.56;;;20.64
43802;BMP280;29429;51.074;13.764;2023-07-29T00:53:44;99320.38;;;20.60
43802;BMP280;29429;51.074;13.764;2023-07-29T00:56:12;99327.72;;;20.59
43802;BMP280;29429;51.074;13.764;2023-07-29T00:58:40;99317.91;;;20.63
43802;BMP280;29429;51.074;13.764;2023-07-29T01:01:08;99317.66;;;20.65
43802;BMP280;29429;51.074;13.764;2023-07-29T01:03:36;99319.00;;;20.62
43802;BMP280;29429;51.074;13.764;2023-07-29T01:06:26;99317.91;;;20.63
43802;BMP280;29429;51.074;13.764;2023-07-29T01:09:04;99313.88;;;20.61
43802;BMP280;29429;51.074;13.764;2023-07-29T01:14:36;99314.75;;;20.51
43802;BMP280;29429;51.074;13.764;2023-07-29T01:17:09;99313.16;;;20.45
43802;BMP280;29429;51.074;13.764;2023-07-29T01:19:59;99306.97;;;20.40
43802;BMP280;29429;51.074;13.764;2023-07-29T01:22:28;99312.41;;;20.35
43802;BMP280;29429;51.074;13.764;2023-07-29T01:24:59;99308.63;;;20.31
43802;BMP280;29429;51.074;13.764;2023-07-29T01:27:27;99316.00;;;20.25
43802;BMP280;29429;51.074;13.764;2023-07-29T01:29:55;99297.53;;;20.22
43802;BMP280;29429;51.074;13.764;2023-07-29T01:35:26;99305.69;;;20.12
43802;BMP280;29429;51.074;13.764;2023-07-29T01:38:11;99303.00;;;20.07
43802;BMP280;29429;51.074;13.764;2023-07-29T01:40:40;99300.63;;;20.00
43802;BMP280;29429;51.074;13.764;2023-07-29T01:43:09;99299.28;;;19.98
43802;BMP280;29429;51.074;13.764;2023-07-29T01:45:37;99296.84;;;19.91
43802;BMP280;29429;51.074;13.764;2023-07-29T01:48:06;99306.63;;;19.87
43802;BMP280;29429;51.074;13.764;2023-07-29T01:50:34;99312.31;;;19.86
43802;BMP280;29429;51.074;13.764;2023-07-29T01:53:02;99305.31;;;19.80
43802;BMP280;29429;51.074;13.764;2023-07-29T01:55:29;99306.41;;;19.74
43802;BMP280;29429;51.074;13.764;2023-07-29T01:57:57;99308.00;;;19.70
43802;BMP280;29429;51.074;13.764;2023-07-29T02:00:26;99307.25;;;19.64
43802;BMP280;29429;51.074;13.764;2023-07-29T02:02:53;99314.03;;;19.62
43802;BMP280;29429;51.074;13.764;2023-07-29T02:05:21;99309.16;;;19.59
43802;BMP280;29429;51.074;13.764;2023-07-29T02:07:48;99306.19;;;19.55
43802;BMP280;29429;51.074;13.764;2023-07-29T02:10:16;99302.66;;;19.55
43802;BMP280;29429;51.074;13.764;2023-07-29T02:12:43;99302.13;;;19.53
43802;BMP280;29429;51.074;13.764;2023-07-29T02:15:11;99304.81;;;19.53
43802;BMP280;29429;51.074;13.764;2023-07-29T02:17:39;99309.44;;;19.47
43802;BMP280;29429;51.074;13.764;2023-07-29T02:20:07;99309.97;;;19.44
43802;BMP280;29429;51.074;13.764;2023-07-29T02:22:35;99318.38;;;19.42
43802;BMP280;29429;51.074;13.764;2023-07-29T02:25:02;99308.38;;;19.43
43802;BMP280;29429;51.074;13.764;2023-07-29T02:27:30;99314.59;;;19.38
43802;BMP280;29429;51.074;13.764;2023-07-29T02:29:58;99304.28;;;19.35
43802;BMP280;29429;51.074;13.764;2023-07-29T02:32:26;99308.63;;;19.31
43802;BMP280;29429;51.074;13.764;2023-07-29T02:34:54;99305.94;;;19.26
43802;BMP280;29429;51.074;13.764;2023-07-29T02:37:21;99306.47;;;19.23
43802;BMP280;29429;51.074;13.764;2023-07-29T02:39:49;99312.94;;;19.22
43802;BMP280;29429;51.074;13.764;2023-07-29T02:42:16;99323.50;;;19.24
43802;BMP280;29429;51.074;13.764;2023-07-29T02:44:44;99319.16;;;19.23
43802;BMP280;29429;51.074;13.764;2023-07-29T02:47:11;99324.31;;;19.24
43802;BMP280;29429;51.074;13.764;2023-07-29T02:49:39;99331.63;;;19.24
43802;BMP280;29429;51.074;13.764;2023-07-29T02:52:07;99331.63;;;19.29
43802;BMP280;29429;51.074;13.764;2023-07-29T02:54:34;99337.56;;;19.26
43802;BMP280;29429;51.074;13.764;2023-07-29T02:57:02;99335.38;;;19.28
43802;BMP280;29429;51.074;13.764;2023-07-29T02:59:30;99338.91;;;19.33
43802;BMP280;29429;51.074;13.764;2023-07-29T03:01:58;99340.53;;;19.34
43802;BMP280;29429;51.074;13.764;2023-07-29T03:04:26;99352.97;;;19.35
43802;BMP280;29429;51.074;13.764;2023-07-29T03:06:56;99347.03;;;19.38
43802;BMP280;29429;51.074;13.764;2023-07-29T03:09:26;99345.97;;;19.39
43802;BMP280;29429;51.074;13.764;2023-07-29T03:12:01;99344.31;;;19.43
43802;BMP280;29429;51.074;13.764;2023-07-29T03:14:29;99345.41;;;19.48
43802;BMP280;29429;51.074;13.764;2023-07-29T03:17:01;99347.28;;;19.52
43802;BMP280;29429;51.074;13.764;2023-07-29T03:19:29;99340.81;;;19.53
43802;BMP280;29429;51.074;13.764;2023-07-29T03:21:57;99344.88;;;19.56
43802;BMP280;29429;51.074;13.764;2023-07-29T03:24:25;99345.66;;;19.61
43802;BMP280;29429;51.074;13.764;2023-07-29T03:26:54;99348.38;;;19.61
43802;BMP280;29429;51.074;13.764;2023-07-29T03:29:23;99346.22;;;19.63
43802;BMP280;29429;51.074;13.764;2023-07-29T03:31:54;99344.31;;;19.64
43802;BMP280;29429;51.074;13.764;2023-07-29T03:34:24;99345.66;;;19.71
43802;BMP280;29429;51.074;13.764;2023-07-29T03:36:53;99337.78;;;19.70
43802;BMP280;29429;51.074;13.764;2023-07-29T03:39:22;99337.50;;;19.76
43802;BMP280;29429;51.074;13.764;2023-07-29T03:41:49;99335.34;;;19.78
43802;BMP280;29429;51.074;13.764;2023-07-29T03:44:17;99333.44;;;19.84
43802;BMP280;29429;51.074;13.764;2023-07-29T03:46:46;99336.66;;;19.91
43802;BMP280;29429;51.074;13.764;2023-07-29T03:49:14;99325.00;;;19.95
43802;BMP280;29429;51.074;13.764;2023-07-29T03:51:42;99326.34;;;19.98
43802;BMP280;29429;51.074;13.764;2023-07-29T03:54:10;99316.56;;;20.02
43802;BMP280;29429;51.074;13.764;2023-07-29T03:56:38;99321.97;;;20.07
43802;BMP280;29429;51.074;13.764;2023-07-29T03:59:06;99319.53;;;20.11
43802;BMP280;29429;51.074;13.764;2023-07-29T04:01:35;99322.50;;;20.14
43802;BMP280;29429;51.074;13.764;2023-07-29T04:04:03;99321.94;;;20.17
43802;BMP280;29429;51.074;13.764;2023-07-29T04:06:32;99323.00;;;20.21
43802;BMP280;29429;51.074;13.764;2023-07-29T04:09:01;99311.34;;;20.26
43802;BMP280;29429;51.074;13.764;2023-07-29T04:11:29;99322.44;;;20.34
43802;BMP280;29429;51.074;13.764;2023-07-29T04:13:57;99311.56;;;20.39
43802;BMP280;29429;51.074;13.764;2023-07-29T04:16:24;99313.97;;;20.46
43802;BMP280;29429;51.074;13.764;2023-07-29T04:18:53;99324.78;;;20.51
43802;BMP280;29429;51.074;13.764;2023-07-29T04:21:24;99324.75;;;20.56
43802;BMP280;29429;51.074;13.764;2023-07-29T04:23:52;99319.28;;;20.61
43802;BMP280;29429;51.074;13.764;2023-07-29T04:26:20;99326.31;;;20.67
43802;BMP280;29429;51.074;13.764;2023-07-29T04:28:48;99320.56;;;20.74
43802;BMP280;29429;51.074;13.764;2023-07-29T04:31:16;99326.75;;;20.79
43802;BMP280;29429;51.074;13.764;2023-07-29T04:33:43;99318.88;;;20.83
43802;BMP280;29429;51.074;13.764;2023-07-29T04:36:11;99327.78;;;20.88
43802;BMP280;29429;51.074;13.764;2023-07-29T04:38:42;99324.78;;;20.90
43802;BMP280;29429;51.074;13.764;2023-07-29T04:41:10;99321.50;;;20.93
43802;BMP280;29429;51.074;13.764;2023-07-29T04:43:38;99313.63;;;20.96
43802;BMP280;29429;51.074;13.764;2023-07-29T04:46:08;99323.09;;;20.99
43802;BMP280;29429;51.074;13.764;2023-07-29T04:48:36;99318.72;;;21.03
43802;BMP280;29429;51.074;13.764;2023-07-29T04:51:04;99320.63;;;21.07
43802;BMP280;29429;51.074;13.764;2023-07-29T04:53:32;99314.63;;;21.10
43802;BMP280;29429;51.074;13.764;2023-07-29T04:56:00;99306.72;;;21.14
43802;BMP280;29429;51.074;13.764;2023-07-29T04:58:28;99311.28;;;21.18
43802;BMP280;29429;51.074;13.764;2023-07-29T05:00:58;99312.06;;;21.24
43802;BMP280;29429;51.074;13.764;2023-07-29T05:03:26;99320.16;;;21.29
43802;BMP280;29429;51.074;13.764;2023-07-29T05:05:54;99316.31;;;21.35
43802;BMP280;29429;51.074;13.764;2023-07-29T05:08:23;99310.88;;;21.35
43802;BMP280;29429;51.074;13.764;2023-07-29T05:10:52;99313.59;;;21.35
43802;BMP280;29429;51.074;13.764;2023-07-29T05:13:20;99310.88;;;21.35
43802;BMP280;29429;51.074;13.764;2023-07-29T05:15:48;99309.50;;;21.38
43802;BMP280;29429;51.074;13.764;2023-07-29T05:18:16;99310.56;;;21.42
43802;BMP280;29429;51.074;13.764;2023-07-29T05:20:44;99315.13;;;21.46
43802;BMP280;29429;51.074;13.764;2023-07-29T05:23:11;99310.72;;;21.50
43802;BMP280;29429;51.074;13.764;2023-07-29T05:25:38;99303.91;;;21.53
43802;BMP280;29429;51.074;13.764;2023-07-29T05:28:06;99304.09;;;21.61
43802;BMP280;29429;51.074;13.764;2023-07-29T05:30:34;99297.75;;;21.71
43802;BMP280;29429;51.074;13.764;2023-07-29T05:33:06;99298.22;;;21.78
43802;BMP280;29429;51.074;13.764;2023-07-29T05:35:35;99291.88;;;21.88
43802;BMP280;29429;51.074;13.764;2023-07-29T05:38:04;99296.09;;;21.99
43802;BMP280;29429;51.074;13.764;2023-07-29T05:41:12;99291.84;;;22.11
43802;BMP280;29429;51.074;13.764;2023-07-29T05:44:05;99284.38;;;22.22
43802;BMP280;29429;51.074;13.764;2023-07-29T05:46:36;99285.78;;;22.38
43802;BMP280;29429;51.074;13.764;2023-07-29T05:49:04;99279.84;;;22.55
43802;BMP280;29429;51.074;13.764;2023-07-29T05:51:32;99285.31;;;22.73
43802;BMP280;29429;51.074;13.764;2023-07-29T05:53:59;99281.25;;;22.89
43802;BMP280;29429;51.074;13.764;2023-07-29T05:56:26;99276.63;;;23.03
43802;BMP280;29429;51.074;13.764;2023-07-29T05:58:54;99273.66;;;23.19
43802;BMP280;29429;51.074;13.764;2023-07-29T06:01:22;99264.13;;;23.35
43802;BMP280;29429;51.074;13.764;2023-07-29T06:03:50;99261.44;;;23.48
43802;BMP280;29429;51.074;13.764;2023-07-29T06:06:18;99258.31;;;23.55
43802;BMP280;29429;51.074;13.764;2023-07-29T06:08:46;99256.69;;;23.54
43802;BMP280;29429;51.074;13.764;2023-07-29T06:11:13;99252.88;;;23.55
43802;BMP280;29429;51.074;13.764;2023-07-29T06:13:41;99251.47;;;23.57
43802;BMP280;29429;51.074;13.764;2023-07-29T06:16:08;99254.41;;;23.61
43802;BMP280;29429;51.074;13.764;2023-07-29T06:18:38;99245.09;;;23.62
43802;BMP280;29429;51.074;13.764;2023-07-29T06:21:06;99246.41;;;23.64
43802;BMP280;29429;51.074;13.764;2023-07-29T06:23:35;99253.16;;;23.67
43802;BMP280;29429;51.074;13.764;2023-07-29T06:26:03;99259.31;;;23.73
43802;BMP280;29429;51.074;13.764;2023-07-29T06:28:31;99259.03;;;23.88
43802;BMP280;29429;51.074;13.764;2023-07-29T06:30:59;99261.22;;;23.99
43802;BMP280;29429;51.074;13.764;2023-07-29T06:33:27;99257.22;;;24.10
43802;BMP280;29429;51.074;13.764;2023-07-29T06:35:54;99258.72;;;24.16
43802;BMP280;29429;51.074;13.764;2023-07-29T06:38:21;99244.25;;;24.30
43802;BMP280;29429;51.074;13.764;2023-07-29T06:40:49;99252.88;;;24.45
43802;BMP280;29429;51.074;13.764;2023-07-29T06:43:17;99260.28;;;24.67
43802;BMP280;29429;51.074;13.764;2023-07-29T06:45:45;99253.56;;;24.87
43802;BMP280;29429;51.074;13.764;2023-07-29T06:48:12;99262.34;;;25.06
43802;BMP280;29429;51.074;13.764;2023-07-29T06:50:40;99260.66;;;25.18
43802;BMP280;29429;51.074;13.764;2023-07-29T06:53:08;99263.53;;;25.13
43802;BMP280;29429;51.074;13.764;2023-07-29T06:55:37;99257.25;;;25.13
43802;BMP280;29429;51.074;13.764;2023-07-29T06:58:04;99252.16;;;25.20
43802;BMP280;29429;51.074;13.764;2023-07-29T07:00:32;99255.53;;;25.17
43802;BMP280;29429;51.074;13.764;2023-07-29T07:03:00;99252.34;;;25.23
43802;BMP280;29429;51.074;13.764;2023-07-29T07:05:27;99259.13;;;25.34
43802;BMP280;29429;51.074;13.764;2023-07-29T07:07:55;99251.63;;;25.40
43802;BMP280;29429;51.074;13.764;2023-07-29T07:10:25;99251.38;;;25.50
43802;BMP280;29429;51.074;13.764;2023-07-29T07:12:52;99246.44;;;25.61
43802;BMP280;29429;51.074;13.764;2023-07-29T07:15:20;99242.94;;;25.69
43802;BMP280;29429;51.074;13.764;2023-07-29T07:17:47;99245.84;;;25.72
43802;BMP280;29429;51.074;13.764;2023-07-29T07:20:15;99242.16;;;25.77
43802;BMP280;29429;51.074;13.764;2023-07-29T07:22:44;99237.47;;;25.69
43802;BMP280;29429;51.074;13.764;2023-07-29T07:25:11;99229.25;;;25.69
43802;BMP280;29429;51.074;13.764;2023-07-29T07:27:39;99233.00;;;25.73
43802;BMP280;29429;51.074;13.764;2023-07-29T07:30:07;99216.91;;;25.80
43802;BMP280;29429;51.074;13.764;2023-07-29T07:32:34;99218.69;;;25.84
43802;BMP280;29429;51.074;13.764;2023-07-29T07:35:02;99214.03;;;25.85
43802;BMP280;29429;51.074;13.764;2023-07-29T07:37:31;99205.03;;;25.84
43802;BMP280;29429;51.074;13.764;2023-07-29T07:39:58;99206.31;;;25.87
43802;BMP280;29429;51.074;13.764;2023-07-29T07:42:26;99203.59;;;25.78
43802;BMP280;29429;51.074;13.764;2023-07-29T07:44:55;99199.56;;;25.76
43802;BMP280;29429;51.074;13.764;2023-07-29T07:47:23;99190.59;;;25.84
43802;BMP280;29429;51.074;13.764;2023-07-29T07:49:50;99197.19;;;25.91
43802;BMP280;29429;51.074;13.764;2023-07-29T07:52:18;99195.75;;;25.94
43802;BMP280;29429;51.074;13.764;2023-07-29T07:54:45;99190.91;;;25.91
43802;BMP280;29429;51.074;13.764;2023-07-29T07:57:13;99185.91;;;25.93
43802;BMP280;29429;51.074;13.764;2023-07-29T07:59:40;99181.91;;;25.99
43802;BMP280;29429;51.074;13.764;2023-07-29T08:02:07;99176.13;;;26.09
43802;BMP280;29429;51.074;13.764;2023-07-29T08:04:35;99181.31;;;26.28
43802;BMP280;29429;51.074;13.764;2023-07-29T08:07:02;99175.50;;;26.38
43802;BMP280;29429;51.074;13.764;2023-07-29T08:09:30;99169.41;;;26.49
43802;BMP280;29429;51.074;13.764;2023-07-29T08:11:58;99169.41;;;26.49
43802;BMP280;29429;51.074;13.764;2023-07-29T08:14:25;99171.00;;;26.50
43802;BMP280;29429;51.074;13.764;2023-07-29T08:16:53;99170.00;;;26.63
43802;BMP280;29429;51.074;13.764;2023-07-29T08:19:21;99169.53;;;26.79
43802;BMP280;29429;51.074;13.764;2023-07-29T08:21:52;99167.72;;;27.00
43802;BMP280;29429;51.074;13.764;2023-07-29T08:24:20;99163.50;;;27.11
43802;BMP280;29429;51.074;13.764;2023-07-29T08:26:47;99170.91;;;27.10
43802;BMP280;29429;51.074;13.764;2023-07-29T08:29:14;99166.03;;;27.16
43802;BMP280;29429;51.074;13.764;2023-07-29T08:31:42;99167.97;;;27.15
43802;BMP280;29429;51.074;13.764;2023-07-29T08:34:09;99159.19;;;27.31
43802;BMP280;29429;51.074;13.764;2023-07-29T08:36:37;99157.19;;;27.48
43802;BMP280;29429;51.074;13.764;2023-07-29T08:39:05;99157.13;;;27.65
43802;BMP280;29429;51.074;13.764;2023-07-29T08:41:57;99160.34;;;27.88
43802;BMP280;29429;51.074;13.764;2023-07-29T08:44:35;99149.28;;;28.05
43802;BMP280;29429;51.074;13.764;2023-07-29T08:47:03;99159.00;;;27.94
43802;BMP280;29429;51.074;13.764;2023-07-29T08:49:31;99159.38;;;27.93
43802;BMP280;29429;51.074;13.764;2023-07-29T08:52:00;99164.66;;;27.98
43802;BMP280;29429;51.074;13.764;2023-07-29T08:54:28;99166.56;;;28.06
43802;BMP280;29429;51.074;13.764;2023-07-29T08:56:56;99166.00;;;28.12
43802;BMP280;29429;51.074;13.764;2023-07-29T08:59:25;99167.81;;;28.29
43802;BMP280;29429;51.074;13.764;2023-07-29T09:01:55;99164.94;;;28.46
43802;BMP280;29429;51.074;13.764;2023-07-29T09:04:24;99161.09;;;28.59
43802;BMP280;29429;51.074;13.764;2023-07-29T09:06:54;99158.16;;;28.64
43802;BMP280;29429;51.074;13.764;2023-07-29T09:09:25;99155.78;;;28.54
43802;BMP280;29429;51.074;13.764;2023-07-29T09:11:53;99160.16;;;28.55
43802;BMP280;29429;51.074;13.764;2023-07-29T09:14:21;99169.19;;;28.56
43802;BMP280;29429;51.074;13.764;2023-07-29T09:16:49;99160.59;;;28.57
43802;BMP280;29429;51.074;13.764;2023-07-29T09:19:16;99169.50;;;28.54
43802;BMP280;29429;51.074;13.764;2023-07-29T09:21:46;99166.75;;;28.54
43802;BMP280;29429;51.074;13.764;2023-07-29T09:24:16;99173.38;;;28.62
43802;BMP280;29429;51.074;13.764;2023-07-29T09:26:53;99158.88;;;28.53
43802;BMP280;29429;51.074;13.764;2023-07-29T09:29:52;99155.72;;;28.63
43802;BMP280;29429;51.074;13.764;2023-07-29T09:32:30;99149.44;;;28.62
43802;BMP280;29429;51.074;13.764;2023-07-29T09:34:58;99154.53;;;28.72
43802;BMP280;29429;51.074;13.764;2023-07-29T09:37:26;99146.75;;;28.86
43802;BMP280;29429;51.074;13.764;2023-07-29T09:39:53;99147.91;;;28.85
43802;BMP280;29429;51.074;13.764;2023-07-29T09:42:22;99144.94;;;28.90
43802;BMP280;29429;51.074;13.764;2023-07-29T09:44:52;99141.53;;;28.93
43802;BMP280;29429;51.074;13.764;2023-07-29T09:47:26;99149.19;;;29.00
43802;BMP280;29429;51.074;13.764;2023-07-29T09:49:54;99150.22;;;29.08
43802;BMP280;29429;51.074;13.764;2023-07-29T09:52:23;99144.75;;;29.20
43802;BMP280;29429;51.074;13.764;2023-07-29T09:54:51;99143.97;;;29.19
43802;BMP280;29429;51.074;13.764;2023-07-29T09:57:19;99146.88;;;29.23
43802;BMP280;29429;51.074;13.764;2023-07-29T09:59:56;99140.41;;;29.19
43802;BMP280;29429;51.074;13.764;2023-07-29T10:02:25;99145.75;;;29.03
43802;BMP280;29429;51.074;13.764;2023-07-29T10:05:29;99144.50;;;28.88
43802;BMP280;29429;51.074;13.764;2023-07-29T10:07:57;99136.09;;;28.73
43802;BMP280;29429;51.074;13.764;2023-07-29T10:10:27;99134.59;;;28.75
43802;BMP280;29429;51.074;13.764;2023-07-29T10:12:55;99144.44;;;28.64
43802;BMP280;29429;51.074;13.764;2023-07-29T10:15:34;99152.44;;;28.16
43802;BMP280;29429;51.074;13.764;2023-07-29T10:18:03;99147.19;;;27.52
43802;BMP280;29429;51.074;13.764;2023-07-29T10:20:31;99154.97;;;27.50
43802;BMP280;29429;51.074;13.764;2023-07-29T10:23:00;99154.69;;;27.35
43802;BMP280;29429;51.074;13.764;2023-07-29T10:25:41;99149.06;;;27.40
43802;BMP280;29429;51.074;13.764;2023-07-29T10:28:12;99147.19;;;27.52
43802;BMP280;29429;51.074;13.764;2023-07-29T10:30:40;99148.75;;;27.62
43802;BMP280;29429;51.074;13.764;2023-07-29T10:33:07;99156.34;;;27.86
43802;BMP280;29429;51.074;13.764;2023-07-29T10:35:35;99154.34;;;27.95
43802;BMP280;29429;51.074;13.764;2023-07-29T10:38:05;99150.34;;;28.13
43802;BMP280;29429;51.074;13.764;2023-07-29T10:40:47;99144.03;;;28.33
43802;BMP280;29429;51.074;13.764;2023-07-29T10:43:24;99146.38;;;28.43
43802;BMP280;29429;51.074;13.764;2023-07-29T10:45:52;99148.50;;;28.58
43802;BMP280;29429;51.074;13.764;2023-07-29T10:48:39;99151.06;;;28.75
43802;BMP280;29429;51.074;13.764;2023-07-29T10:53:54;99136.81;;;28.94
43802;BMP280;29429;51.074;13.764;2023-07-29T10:56:27;99133.50;;;28.88
43802;BMP280;29429;51.074;13.764;2023-07-29T10:58:56;99134.59;;;28.75
43802;BMP280;29429;51.074;13.764;2023-07-29T11:01:30;99136.84;;;28.61
43802;BMP280;29429;51.074;13.764;2023-07-29T11:04:23;99136.09;;;28.40
43802;BMP280;29429;51.074;13.764;2023-07-29T11:15:27;99127.72;;;27.95
43802;BMP280;29429;51.074;13.764;2023-07-29T11:17:57;99123.34;;;28.03
43802;BMP280;29429;51.074;13.764;2023-07-29T11:20:26;99115.03;;;28.11
43802;BMP280;29429;51.074;13.764;2023-07-29T11:22:56;99114.03;;;28.16
43802;BMP280;29429;51.074;13.764;2023-07-29T11:25:25;99109.66;;;28.15
43802;BMP280;29429;51.074;13.764;2023-07-29T11:27:57;99104.75;;;28.08
43802;BMP280;29429;51.074;13.764;2023-07-29T11:30:24;99109.25;;;27.84
43802;BMP280;29429;51.074;13.764;2023-07-29T11:32:57;99136.47;;;27.68
43802;BMP280;29429;51.074;13.764;2023-07-29T11:35:25;99154.34;;;26.98
43802;BMP280;29429;51.074;13.764;2023-07-29T11:37:58;99147.47;;;25.72
43802;BMP280;29429;51.074;13.764;2023-07-29T11:40:32;99148.94;;;24.69
43802;BMP280;29429;51.074;13.764;2023-07-29T11:43:02;99146.91;;;23.94
43802;BMP280;29429;51.074;13.764;2023-07-29T11:45:29;99152.25;;;23.86
43802;BMP280;29429;51.074;13.764;2023-07-29T11:48:12;99140.59;;;23.85
43802;BMP280;29429;51.074;13.764;2023-07-29T11:50:40;99140.59;;;23.85
43802;BMP280;29429;51.074;13.764;2023-07-29T11:53:08;99140.03;;;23.97
43802;BMP280;29429;51.074;13.764;2023-07-29T11:55:35;99136.91;;;24.03
43802;BMP280;29429;51.074;13.764;2023-07-29T11:58:03;99142.13;;;24.13
43802;BMP280;29429;51.074;13.764;2023-07-29T12:00:31;99140.78;;;24.25
43802;BMP280;29429;51.074;13.764;2023-07-29T12:02:59;99139.91;;;24.38
43802;BMP280;29429;51.074;13.764;2023-07-29T12:05:27;99138.56;;;24.49
43802;BMP280;29429;51.074;13.764;2023-07-29T12:07:54;99135.56;;;24.59
43802;BMP280;29429;51.074;13.764;2023-07-29T12:10:22;99130.31;;;24.71
43802;BMP280;29429;51.074;13.764;2023-07-29T12:12:50;99129.47;;;24.84
43802;BMP280;29429;51.074;13.764;2023-07-29T12:15:27;99124.72;;;24.98
43802;BMP280;29429;51.074;13.764;2023-07-29T12:17:56;99124.44;;;25.08
43802;BMP280;29429;51.074;13.764;2023-07-29T12:20:25;99122.91;;;25.24
43802;BMP280;29429;51.074;13.764;2023-07-29T12:22:57;99124.56;;;25.42
43802;BMP280;29429;51.074;13.764;2023-07-29T12:25:26;99123.00;;;25.59
43802;BMP280;29429;51.074;13.764;2023-07-29T12:27:54;99118.22;;;25.73
43802;BMP280;29429;51.074;13.764;2023-07-29T12:30:22;99109.53;;;25.71
43802;BMP280;29429;51.074;13.764;2023-07-29T12:32:50;99105.66;;;25.72
43802;BMP280;29429;51.074;13.764;2023-07-29T12:35:18;99097.31;;;25.77
43802;BMP280;29429;51.074;13.764;2023-07-29T12:37:46;99091.22;;;25.97
43802;BMP280;29429;51.074;13.764;2023-07-29T12:40:26;99093.97;;;26.14
43802;BMP280;29429;51.074;13.764;2023-07-29T12:42:54;99102.81;;;26.28
43802;BMP280;29429;51.074;13.764;2023-07-29T12:45:22;99096.34;;;26.41
43802;BMP280;29429;51.074;13.764;2023-07-29T12:47:56;99098.28;;;26.49
43802;BMP280;29429;51.074;13.764;2023-07-29T12:50:24;99096.97;;;26.55
43802;BMP280;29429;51.074;13.764;2023-07-29T12:52:51;99096.44;;;26.71
43802;BMP280;29429;51.074;13.764;2023-07-29T12:55:19;99079.03;;;26.84
43802;BMP280;29429;51.074;13.764;2023-07-29T12:57:50;99087.31;;;27.04
43802;BMP280;29429;51.074;13.764;2023-07-29T13:00:18;99088.50;;;27.24
43802;BMP280;29429;51.074;13.764;2023-07-29T13:02:58;99083.56;;;27.38
43802;BMP280;29429;51.074;13.764;2023-07-29T13:05:26;99067.66;;;27.40
43802;BMP280;29429;51.074;13.764;2023-07-29T13:07:53;99062.31;;;27.35
43802;BMP280;29429;51.074;13.764;2023-07-29T13:10:21;99056.38;;;27.42
43802;BMP280;29429;51.074;13.764;2023-07-29T13:12:48;99058.25;;;27.50
43802;BMP280;29429;51.074;13.764;2023-07-29T13:15:16;99057.44;;;27.49
43802;BMP280;29429;51.074;13.764;2023-07-29T13:17:43;99062.09;;;27.49
43802;BMP280;29429;51.074;13.764;2023-07-29T13:20:11;99058.44;;;27.45
43802;BMP280;29429;51.074;13.764;2023-07-29T13:22:38;99062.31;;;27.44
43802;BMP280;29429;51.074;13.764;2023-07-29T13:25:06;99069.41;;;27.45
43802;BMP280;29429;51.074;13.764;2023-07-29T13:27:45;99066.97;;;27.43
43802;BMP280;29429;51.074;13.764;2023-07-29T13:30:13;99058.56;;;27.48
43802;BMP280;29429;51.074;13.764;2023-07-29T13:32:40;99055.25;;;27.63
43802;BMP280;29429;51.074;13.764;2023-07-29T13:35:08;99057.78;;;27.68
43802;BMP280;29429;51.074;13.764;2023-07-29T13:37:35;99053.81;;;27.78
43802;BMP280;29429;51.074;13.764;2023-07-29T13:40:03;99058.03;;;27.75
43802;BMP280;29429;51.074;13.764;2023-07-29T13:42:30;99052.91;;;27.74
43802;BMP280;29429;51.074;13.764;2023-07-29T13:44:58;99052.16;;;27.65
43802;BMP280;29429;51.074;13.764;2023-07-29T13:47:25;99045.34;;;27.50
43802;BMP280;29429;51.074;13.764;2023-07-29T13:49:52;99063.56;;;27.17
43802;BMP280;29429;51.074;13.764;2023-07-29T13:52:20;99060.47;;;26.98
43802;BMP280;29429;51.074;13.764;2023-07-29T13:54:47;99059.03;;;26.92
43802;BMP280;29429;51.074;13.764;2023-07-29T13:57:15;99055.50;;;26.91
43802;BMP280;29429;51.074;13.764;2023-07-29T13:59:43;99051.75;;;26.96
43802;BMP280;29429;51.074;13.764;2023-07-29T14:02:10;99049.31;;;27.03
43802;BMP280;29429;51.074;13.764;2023-07-29T14:04:37;99053.00;;;27.07
43802;BMP280;29429;51.074;13.764;2023-07-29T14:07:05;99069.69;;;27.14
43802;BMP280;29429;51.074;13.764;2023-07-29T14:09:33;99054.03;;;27.23
43802;BMP280;29429;51.074;13.764;2023-07-29T14:12:00;99047.44;;;27.24
43802;BMP280;29429;51.074;13.764;2023-07-29T14:14:27;99061.16;;;27.15
43802;BMP280;29429;51.074;13.764;2023-07-29T14:16:55;99056.50;;;27.16
43802;BMP280;29429;51.074;13.764;2023-07-29T14:19:23;99060.63;;;27.22
43802;BMP280;29429;51.074;13.764;2023-07-29T14:21:51;99051.69;;;27.13
43802;BMP280;29429;51.074;13.764;2023-07-29T14:24:20;99050.25;;;27.07
43802;BMP280;29429;51.074;13.764;2023-07-29T14:26:50;99048.97;;;27.04